createdAt,value
2019-04-03T00:00:41.435Z,94416.58
2019-04-03T00:10:53.384Z,94416.43
2019-04-03T00:13:21.740Z,94417.93
2019-04-03T00:15:51.062Z,94419.03
2019-04-03T00:18:19.445Z,94418.99
2019-04-03T00:20:48.671Z,94418.30
2019-04-03T00:23:16.209Z,94420.38
2019-04-03T00:25:45.545Z,94411.88
2019-04-03T00:28:13.910Z,94415.54
2019-04-03T00:35:51.708Z,94398.29
2019-04-03T00:38:19.312Z,94395.98
2019-04-03T00:40:47.629Z,94391.17
2019-04-03T00:43:15.964Z,94395.36
2019-04-03T00:45:45.286Z,94393.08
2019-04-03T00:50:48.770Z,94400.00
2019-04-03T00:53:17.096Z,94394.98
2019-04-03T01:06:03.049Z,94374.83
2019-04-03T01:08:32.873Z,94375.98
2019-04-03T01:13:37.840Z,94366.27
2019-04-03T01:16:06.378Z,94371.34
2019-04-03T01:18:35.136Z,94365.77
2019-04-03T01:21:02.784Z,94363.48
2019-04-03T01:23:31.514Z,94363.25
2019-04-03T01:25:59.952Z,94362.38
2019-04-03T01:28:28.336Z,94353.66
2019-04-03T01:30:56.786Z,94348.97
2019-04-03T01:33:24.997Z,94349.05
2019-04-03T01:35:53.356Z,94344.14
2019-04-03T01:38:21.843Z,94336.78
2019-04-03T01:40:51.173Z,94329.27
2019-04-03T01:43:19.436Z,94333.89
2019-04-03T01:45:47.795Z,94330.75
2019-04-03T01:48:16.140Z,94329.48
2019-04-03T01:50:45.416Z,94327.48
2019-04-03T01:55:48.011Z,94325.08
2019-04-03T01:58:16.388Z,94322.93
2019-04-03T02:00:44.805Z,94319.73
2019-04-03T02:03:14.068Z,94320.25
2019-04-03T02:08:16.584Z,94317.05
2019-04-03T02:10:45.399Z,94315.28
2019-04-03T02:13:13.598Z,94316.58
2019-04-03T02:15:41.868Z,94317.96
2019-04-03T02:18:10.204Z,94310.27
2019-04-03T02:20:39.583Z,94308.48
2019-04-03T02:23:07.892Z,94309.23
2019-04-03T02:25:36.879Z,94305.08
2019-04-03T02:28:05.132Z,94302.73
2019-04-03T02:30:34.126Z,94303.53
2019-04-03T02:33:02.459Z,94305.88
2019-04-03T02:35:31.374Z,94299.53
2019-04-03T02:37:59.684Z,94306.32
2019-04-03T02:40:31.481Z,94302.67
2019-04-03T02:42:56.862Z,94295.67
2019-04-03T02:45:25.152Z,94293.59
2019-04-03T02:47:54.716Z,94285.19
2019-04-03T02:50:24.312Z,94283.48
2019-04-03T02:55:26.849Z,94280.22
2019-04-03T02:57:55.306Z,94273.17
2019-04-03T03:00:23.802Z,94272.45
2019-04-03T03:02:51.958Z,94274.95
2019-04-03T03:05:20.365Z,94275.61
2019-04-03T03:07:48.712Z,94272.64
2019-04-03T03:10:19.477Z,94272.64
2019-04-03T03:12:45.416Z,94272.28
2019-04-03T03:15:13.781Z,94270.76
2019-04-03T03:17:42.188Z,94268.63
2019-04-03T03:22:44.790Z,94271.05
2019-04-03T03:27:47.498Z,94273.20
2019-04-03T03:30:41.836Z,94272.68
2019-04-03T03:32:45.207Z,94270.62
2019-04-03T03:35:18.201Z,94270.47
2019-04-03T03:37:41.791Z,94272.54
2019-04-03T03:40:10.221Z,94270.72
2019-04-03T03:42:38.402Z,94268.45
2019-04-03T03:45:06.774Z,94268.35
2019-04-03T03:47:36.475Z,94267.70
2019-04-03T03:50:04.331Z,94265.71
2019-04-03T03:52:38.179Z,94259.44
2019-04-03T03:55:05.312Z,94256.44
2019-04-03T03:57:37.961Z,94258.59
2019-04-03T04:00:03.343Z,94255.25
2019-04-03T04:02:36.480Z,94252.17
2019-04-03T04:05:03.045Z,94252.38
2019-04-03T04:07:35.737Z,94260.31
2019-04-03T04:10:02.402Z,94255.34
2019-04-03T04:12:30.783Z,94255.89
2019-04-03T04:14:58.939Z,94252.15
2019-04-03T04:17:27.284Z,94252.07
2019-04-03T04:19:55.641Z,94254.02
2019-04-03T04:22:26.695Z,94252.02
2019-04-03T04:24:52.448Z,94244.58
2019-04-03T04:27:21.164Z,94240.63
2019-04-03T04:29:49.242Z,94241.47
2019-04-03T04:32:17.843Z,94240.13
2019-04-03T04:34:49.250Z,94246.83
2019-04-03T04:37:15.787Z,94248.75
2019-04-03T04:39:44.306Z,94243.91
2019-04-03T04:42:12.413Z,94242.07
2019-04-03T04:44:41.576Z,94242.34
2019-04-03T04:47:09.350Z,94244.55
2019-04-03T04:49:37.769Z,94241.89
2019-04-03T04:52:06.088Z,94242.34
2019-04-03T04:54:37.119Z,94233.39
2019-04-03T04:57:05.428Z,94240.45
2019-04-03T04:59:37.064Z,94242.77
2019-04-03T05:02:05.133Z,94245.34
2019-04-03T05:04:36.839Z,94249.45
2019-04-03T05:07:05.236Z,94254.66
2019-04-03T05:09:36.620Z,94252.22
2019-04-03T05:12:04.822Z,94252.67
2019-04-03T05:14:35.531Z,94251.95
2019-04-03T05:17:04.040Z,94249.41
2019-04-03T05:19:34.908Z,94248.21
2019-04-03T05:22:03.231Z,94244.42
2019-04-03T05:24:33.030Z,94244.63
2019-04-03T05:27:03.270Z,94237.51
2019-04-03T05:29:30.393Z,94240.86
2019-04-03T05:31:59.158Z,94241.15
2019-04-03T05:34:27.513Z,94236.84
2019-04-03T05:36:56.002Z,94235.88
2019-04-03T05:39:24.709Z,94238.42
2019-04-03T05:41:54.231Z,94232.57
2019-04-03T05:44:23.726Z,94234.30
2019-04-03T05:46:50.988Z,94231.95
2019-04-03T05:49:19.699Z,94232.23
2019-04-03T05:53:53.811Z,94223.94
2019-04-03T05:56:20.424Z,94222.75
2019-04-03T05:58:55.468Z,94219.69
2019-04-03T06:01:17.041Z,94217.41
2019-04-03T06:03:45.853Z,94219.12
2019-04-03T06:06:14.426Z,94211.84
2019-04-03T06:08:42.285Z,94213.63
2019-04-03T06:13:47.480Z,94205.57
2019-04-03T06:16:15.976Z,94205.05
2019-04-03T06:18:42.529Z,94204.70
2019-04-03T06:23:45.205Z,94201.78
2019-04-03T06:26:14.517Z,94206.73
2019-04-03T06:28:46.676Z,94209.07
2019-04-03T06:31:12.287Z,94209.66
2019-04-03T06:33:40.642Z,94213.16
2019-04-03T06:36:09.073Z,94209.78
2019-04-03T06:38:37.750Z,94206.66
2019-04-03T06:41:07.919Z,94199.55
2019-04-03T06:43:34.244Z,94201.68
2019-04-03T06:46:02.557Z,94201.85
2019-04-03T06:48:30.923Z,94201.54
2019-04-03T06:50:59.309Z,94199.26
2019-04-03T06:56:01.889Z,94204.18
2019-04-03T06:58:38.016Z,94200.33
2019-04-03T07:03:35.088Z,94194.52
2019-04-03T07:06:03.440Z,94190.51
2019-04-03T07:08:35.667Z,94189.10
2019-04-03T07:11:00.046Z,94191.02
2019-04-03T07:13:30.012Z,94187.26
2019-04-03T07:15:57.349Z,94177.13
2019-04-03T07:18:25.971Z,94181.00
2019-04-03T07:20:54.061Z,94181.78
2019-04-03T07:23:22.400Z,94180.48
2019-04-03T07:25:51.093Z,94179.84
2019-04-03T07:28:19.428Z,94185.81
2019-04-03T07:30:47.821Z,94182.91
2019-04-03T07:33:16.508Z,94184.36
2019-04-03T07:38:19.760Z,94176.08
2019-04-03T07:43:21.571Z,94172.28
2019-04-03T07:45:49.921Z,94173.02
2019-04-03T07:48:18.272Z,94175.13
2019-04-03T07:50:46.630Z,94172.41
2019-04-03T07:53:15.992Z,94176.67
2019-04-03T07:55:45.388Z,94172.35
2019-04-03T07:58:13.768Z,94167.25
2019-04-03T08:00:43.097Z,94165.18
2019-04-03T08:03:11.446Z,94159.39
2019-04-03T08:05:39.841Z,94156.19
2019-04-03T08:08:08.465Z,94154.67
2019-04-03T08:10:37.770Z,94144.23
2019-04-03T08:13:06.480Z,94142.17
2019-04-03T08:15:33.423Z,94141.26
2019-04-03T08:20:36.142Z,94139.45
2019-04-03T08:23:05.666Z,94139.62
2019-04-03T08:25:33.209Z,94144.20
2019-04-03T08:28:01.351Z,94141.20
2019-04-03T08:33:15.269Z,94135.72
2019-04-03T08:35:35.751Z,94136.20
2019-04-03T08:38:01.741Z,94131.25
2019-04-03T08:40:30.108Z,94128.52
2019-04-03T08:45:38.403Z,94127.09
2019-04-03T08:48:07.124Z,94124.94
2019-04-03T08:50:34.828Z,94116.61
2019-04-03T08:53:03.185Z,94116.84
2019-04-03T08:55:31.817Z,94113.98
2019-04-03T08:57:59.933Z,94108.65
2019-04-03T09:00:31.392Z,94105.78
2019-04-03T09:05:31.148Z,94096.84
2019-04-03T09:07:59.826Z,94090.83
2019-04-03T09:10:27.854Z,94088.02
2019-04-03T09:12:56.433Z,94082.34
2019-04-03T09:17:59.419Z,94071.64
2019-04-03T09:23:02.078Z,94051.78
2019-04-03T09:25:31.605Z,94051.68
2019-04-03T09:27:59.723Z,94048.89
2019-04-03T09:30:28.180Z,94043.08
2019-04-03T09:32:59.383Z,94042.98
2019-04-03T09:35:25.028Z,94040.87
2019-04-03T09:37:53.438Z,94034.91
2019-04-03T09:40:21.804Z,94033.03
2019-04-03T09:42:51.578Z,94031.91
2019-04-03T09:45:19.568Z,94033.73
2019-04-03T09:50:22.990Z,94020.89
2019-04-03T09:52:50.834Z,94007.47
2019-04-03T09:55:19.016Z,94003.13
2019-04-03T09:57:47.737Z,93994.93
2019-04-03T10:00:16.193Z,93991.91
2019-04-03T10:02:44.422Z,94000.07
2019-04-03T10:05:12.764Z,93993.81
2019-04-03T10:07:41.121Z,93985.63
2019-04-03T10:12:47.307Z,93982.34
2019-04-03T10:15:12.155Z,93970.47
2019-04-03T10:17:40.610Z,93963.16
2019-04-03T10:20:09.114Z,93968.02
2019-04-03T10:22:37.456Z,93959.23
2019-04-03T10:27:43.547Z,93948.70
2019-04-03T10:30:10.100Z,93946.20
2019-04-03T10:32:38.547Z,93940.14
2019-04-03T10:35:08.236Z,93932.77
2019-04-03T10:37:36.652Z,93932.44
2019-04-03T10:40:05.925Z,93923.47
2019-04-03T10:42:34.649Z,93916.45
2019-04-03T10:45:02.750Z,93916.34
2019-04-03T10:47:41.318Z,93915.40
2019-04-03T10:49:59.669Z,93908.34
2019-04-03T10:52:27.841Z,93911.77
2019-04-03T10:54:58.210Z,93905.96
2019-04-03T10:57:27.540Z,93897.17
2019-04-03T10:59:55.901Z,93893.11
2019-04-03T11:02:24.389Z,93889.34
2019-04-03T11:04:53.581Z,93880.58
2019-04-03T11:09:56.396Z,93872.44
2019-04-03T11:12:24.763Z,93881.91
2019-04-03T11:14:53.157Z,93871.52
2019-04-03T11:17:21.482Z,93854.61
2019-04-03T11:19:49.904Z,93847.50
2019-04-03T11:22:18.264Z,93845.86
2019-04-03T11:24:46.613Z,93843.05
2019-04-03T11:27:15.325Z,93833.20
2019-04-03T11:29:43.455Z,93828.14
2019-04-03T11:32:11.937Z,93828.92
2019-04-03T11:34:40.375Z,93827.45
2019-04-03T11:37:08.791Z,93828.10
2019-04-03T11:42:24.189Z,93812.34
2019-04-03T11:44:42.850Z,93807.53
2019-04-03T11:47:13.062Z,93816.52
2019-04-03T11:49:39.674Z,93808.09
2019-04-03T11:52:08.404Z,93799.14
2019-04-03T11:54:38.865Z,93796.39
2019-04-03T11:57:04.856Z,93796.44
2019-04-03T11:59:33.257Z,93790.51
2019-04-03T12:02:01.647Z,93782.80
2019-04-03T12:04:30.197Z,93773.80
2019-04-03T12:06:58.643Z,93770.91
2019-04-03T12:09:26.698Z,93768.80
2019-04-03T12:11:55.561Z,93772.65
2019-04-03T12:14:23.688Z,93759.79
2019-04-03T12:16:51.834Z,93753.97
2019-04-03T12:19:20.942Z,93749.78
2019-04-03T12:21:50.851Z,93747.78
2019-04-03T12:24:17.672Z,93740.02
2019-04-03T12:26:46.088Z,93750.70
2019-04-03T12:29:14.451Z,93746.09
2019-04-03T12:31:43.809Z,93734.11
2019-04-03T12:34:12.152Z,93732.38
2019-04-03T12:36:40.533Z,93719.86
2019-04-03T12:39:09.852Z,93711.80
2019-04-03T12:41:38.219Z,93718.09
2019-04-03T12:44:06.854Z,93711.48
2019-04-03T12:46:36.457Z,93698.47
2019-04-03T12:51:39.969Z,93690.10
2019-04-03T12:54:08.372Z,93679.14
2019-04-03T12:56:37.054Z,93678.47
2019-04-03T12:59:07.420Z,93673.84
2019-04-03T13:01:33.612Z,93679.88
2019-04-03T13:04:01.975Z,93667.95
2019-04-03T13:06:30.326Z,93659.98
2019-04-03T13:08:58.672Z,93663.60
2019-04-03T13:11:27.025Z,93652.28
2019-04-03T13:13:55.376Z,93659.00
2019-04-03T13:16:24.718Z,93665.26
2019-04-03T13:18:53.192Z,93656.78
2019-04-03T13:21:21.539Z,93651.73
2019-04-03T13:23:49.904Z,93653.89
2019-04-03T13:26:18.553Z,93644.69
2019-04-03T13:31:20.973Z,93641.44
2019-04-03T13:33:49.343Z,93639.53
2019-04-03T13:36:18.748Z,93641.50
2019-04-03T13:38:46.094Z,93636.81
2019-04-03T13:41:15.749Z,93642.70
2019-04-03T13:43:43.860Z,93641.73
2019-04-03T13:48:48.337Z,93637.05
2019-04-03T13:51:16.708Z,93630.50
2019-04-03T13:53:45.390Z,93629.00
2019-04-03T13:56:13.451Z,93622.91
2019-04-03T14:03:51.439Z,93612.95
2019-04-03T14:06:18.892Z,93597.68
2019-04-03T14:13:56.295Z,93598.94
2019-04-03T14:18:58.799Z,93600.39
2019-04-03T14:21:27.763Z,93596.91
2019-04-03T14:23:55.789Z,93594.67
2019-04-03T14:26:24.128Z,93597.31
2019-04-03T14:31:34.299Z,93595.20
2019-04-03T14:36:30.616Z,93581.46
2019-04-03T14:38:58.983Z,93581.05
2019-04-03T14:41:27.647Z,93589.96
2019-04-03T14:49:09.277Z,93589.92
2019-04-03T14:51:37.623Z,93582.00
2019-04-03T14:54:08.241Z,93574.22
2019-04-03T14:56:35.128Z,93573.60
2019-04-03T14:59:03.610Z,93577.62
2019-04-03T15:14:23.561Z,93566.55
2019-04-03T15:19:30.171Z,93561.85
2019-04-03T15:22:01.307Z,93565.89
2019-04-03T15:24:26.843Z,93560.77
2019-04-03T15:26:55.109Z,93564.89
2019-04-03T15:29:23.240Z,93565.03
2019-04-03T15:31:51.610Z,93565.25
2019-04-03T15:36:54.421Z,93561.48
2019-04-03T15:39:22.793Z,93561.43
2019-04-03T15:41:51.109Z,93556.68
2019-04-03T15:44:20.987Z,93556.68
2019-04-03T15:49:22.210Z,93555.66
2019-04-03T15:51:50.524Z,93552.55
2019-04-03T15:54:19.178Z,93552.00
2019-04-03T15:56:47.528Z,93551.66
2019-04-03T15:59:15.894Z,93551.33
2019-04-03T16:04:18.625Z,93557.12
2019-04-03T16:06:47.351Z,93550.00
2019-04-03T16:09:18.336Z,93555.08
2019-04-03T16:11:43.830Z,93551.41
2019-04-03T16:14:12.473Z,93554.02
2019-04-03T16:16:40.500Z,93552.84
2019-04-03T16:19:10.986Z,93547.22
2019-04-03T16:21:37.588Z,93548.68
2019-04-03T16:26:43.297Z,93557.85
2019-04-03T16:34:20.135Z,93556.36
2019-04-03T16:36:49.708Z,93550.14
2019-04-03T16:41:51.176Z,93546.85
2019-04-03T16:44:19.518Z,93546.28
2019-04-03T16:46:47.970Z,93543.58
2019-04-03T16:49:16.571Z,93542.98
2019-04-03T16:51:44.747Z,93543.14
2019-04-03T16:54:13.033Z,93540.22
2019-04-03T16:56:41.640Z,93549.53
2019-04-03T17:01:47.145Z,93552.13
2019-04-03T17:04:25.637Z,93546.72
2019-04-03T17:06:45.022Z,93549.55
2019-04-03T17:09:12.622Z,93556.56
2019-04-03T17:11:43.507Z,93553.05
2019-04-03T17:14:09.016Z,93551.09
2019-04-03T17:19:11.428Z,93550.58
2019-04-03T17:21:40.256Z,93546.86
2019-04-03T17:24:08.542Z,93548.39
2019-04-03T17:26:48.356Z,93547.95
2019-04-03T17:29:06.182Z,93543.38
2019-04-03T17:31:34.184Z,93539.59
2019-04-03T17:34:02.420Z,93539.42
2019-04-03T17:36:30.549Z,93543.16
2019-04-03T17:38:58.948Z,93539.88
2019-04-03T17:41:30.293Z,93544.03
2019-04-03T17:43:55.668Z,93545.89
2019-04-03T17:46:24.131Z,93550.38
2019-04-03T17:48:55.271Z,93552.83
2019-04-03T17:51:21.849Z,93550.69
2019-04-03T17:53:50.268Z,93553.59
2019-04-03T17:56:18.673Z,93555.16
2019-04-03T17:58:47.994Z,93560.55
2019-04-03T18:01:15.490Z,93565.00
2019-04-03T18:03:43.905Z,93556.30
2019-04-03T18:08:47.576Z,93554.16
2019-04-03T18:11:15.905Z,93555.30
2019-04-03T18:16:18.469Z,93553.52
2019-04-03T18:18:49.656Z,93557.02
2019-04-03T18:21:17.089Z,93561.94
2019-04-03T18:26:17.896Z,93562.36
2019-04-03T18:28:46.421Z,93567.89
2019-04-03T18:33:50.115Z,93573.19
2019-04-03T18:36:18.443Z,93568.80
2019-04-03T18:38:46.859Z,93571.97
2019-04-03T18:43:49.456Z,93579.36
2019-04-03T18:49:00.950Z,93572.66
2019-04-03T18:51:25.396Z,93574.34
2019-04-03T18:56:28.139Z,93569.52
2019-04-03T18:58:56.619Z,93568.13
2019-04-03T19:01:24.975Z,93571.62
2019-04-03T19:03:53.357Z,93581.30
2019-04-03T19:08:56.013Z,93592.41
2019-04-03T19:11:24.347Z,93590.53
2019-04-03T19:13:52.700Z,93593.73
2019-04-03T19:16:29.435Z,93603.55
2019-04-03T19:18:49.392Z,93606.37
2019-04-03T19:26:26.300Z,93610.91
2019-04-03T19:31:28.985Z,93638.31
2019-04-03T19:36:31.662Z,93676.66
2019-04-03T19:39:00.978Z,93692.11
2019-04-03T19:44:03.582Z,93711.22
2019-04-03T19:46:32.926Z,93713.55
2019-04-03T19:49:02.346Z,93720.24
2019-04-03T19:51:31.684Z,93739.92
2019-04-03T19:54:00.062Z,93750.27
2019-04-03T19:59:04.884Z,93759.90
2019-04-03T20:01:31.001Z,93765.92
2019-04-03T20:03:59.352Z,93780.16
2019-04-03T20:09:01.965Z,93783.09
2019-04-03T20:11:30.288Z,93781.31
2019-04-03T20:13:59.638Z,93803.77
2019-04-03T20:16:28.012Z,93819.31
2019-04-03T20:18:56.878Z,93823.39
2019-04-03T20:26:33.219Z,93845.03
2019-04-03T20:29:02.232Z,93845.80
2019-04-03T20:31:29.909Z,93852.02
2019-04-03T20:36:32.479Z,93863.00
2019-04-03T20:39:00.821Z,93860.33
2019-04-03T20:46:37.933Z,93870.90
2019-04-03T20:49:07.198Z,93865.46
2019-04-03T20:51:35.588Z,93874.44
2019-04-03T20:59:12.393Z,93876.17
2019-04-03T21:01:41.654Z,93886.09
2019-04-03T21:04:09.993Z,93883.98
2019-04-03T21:06:38.773Z,93878.33
2019-04-03T21:11:42.389Z,93885.97
2019-04-03T21:14:11.392Z,93891.00
2019-04-03T21:16:39.444Z,93901.42
2019-04-03T21:19:07.779Z,93906.52
2019-04-03T21:21:36.120Z,93914.17
2019-04-03T21:24:04.678Z,93929.70
2019-04-03T21:26:32.887Z,93934.48
2019-04-03T21:29:01.237Z,93941.13
2019-04-03T21:31:29.568Z,93940.92
2019-04-03T21:33:57.966Z,93946.88
2019-04-03T21:39:02.599Z,93926.02
2019-04-03T21:41:31.857Z,93919.70
2019-04-03T21:44:00.539Z,93920.52
2019-04-03T21:46:28.549Z,93915.45
2019-04-03T21:48:57.856Z,93920.89
2019-04-03T21:51:27.279Z,93918.33
2019-04-03T21:53:56.435Z,93921.98
2019-04-03T21:56:23.980Z,93922.73
2019-04-03T21:58:52.320Z,93925.03
2019-04-03T22:01:20.713Z,93937.06
2019-04-03T22:03:51.484Z,93928.48
2019-04-03T22:06:17.409Z,93923.59
2019-04-03T22:08:45.769Z,93919.86
2019-04-03T22:11:14.113Z,93922.35
2019-04-03T22:13:42.468Z,93924.11
2019-04-03T22:16:11.153Z,93925.66
2019-04-03T22:18:40.403Z,93919.56
2019-04-03T22:21:08.783Z,93915.34
2019-04-03T22:23:37.199Z,93909.24
2019-04-03T22:26:05.500Z,93902.38
2019-04-03T22:28:33.849Z,93907.59
2019-04-03T22:31:02.183Z,93918.72
2019-04-03T22:33:30.884Z,93929.19
2019-04-03T22:36:01.309Z,93928.76
2019-04-03T22:38:28.860Z,93926.09
2019-04-03T22:40:57.233Z,93927.48
2019-04-03T22:43:26.516Z,93925.33
2019-04-03T22:45:54.879Z,93920.16
2019-04-03T22:48:26.780Z,93912.16
2019-04-03T22:50:51.742Z,93912.34
2019-04-03T22:53:20.133Z,93918.52
2019-04-03T22:55:49.114Z,93928.69
2019-04-03T22:58:19.020Z,93925.09
2019-04-03T23:00:45.884Z,93922.31
2019-04-03T23:03:14.284Z,93913.80
2019-04-03T23:05:42.633Z,93897.28
2019-04-03T23:08:10.991Z,93889.73
2019-04-03T23:13:13.753Z,93886.06
2019-04-03T23:15:43.422Z,93879.58
2019-04-03T23:18:13.995Z,93881.69
2019-04-03T23:20:42.200Z,93879.47
2019-04-03T23:23:11.476Z,93862.38
2019-04-03T23:25:40.656Z,93855.69
2019-04-03T23:28:09.012Z,93853.33
2019-04-03T23:30:37.377Z,93862.52
2019-04-03T23:33:05.719Z,93862.16
2019-04-03T23:35:34.067Z,93859.19
2019-04-03T23:38:02.510Z,93857.59
2019-04-03T23:43:08.959Z,93857.82
2019-04-03T23:45:36.530Z,93850.77
2019-04-03T23:48:04.876Z,93845.73
2019-04-03T23:50:33.236Z,93845.84
2019-04-03T23:53:02.628Z,93848.88
2019-04-03T23:55:30.989Z,93852.59
2019-04-03T23:57:59.397Z,93840.84
